sensor_id;sensor_type;location;lat;lon;timestamp;pressure;altitude;pressure_sealevel;temperature;humidity
24996;BME280;13016;52.162;21.034;2023-12-20T00:19:45;99593.38;;;12.78;58.82
24996;BME280;13016;52.162;21.034;2023-12-20T00:25:59;99593.90;;;12.46;59.94
24996;BME280;13016;52.162;21.034;2023-12-20T00:32:06;99591.78;;;12.42;60.33
24996;BME280;13016;52.162;21.034;2023-12-20T03:06:02;99481.91;;;13.37;57.32
24996;BME280;13016;52.162;21.034;2023-12-20T03:12:06;99477.05;;;12.88;58.27
24996;BME280;13016;52.162;21.034;2023-12-20T03:36:13;99461.17;;;12.62;58.88
24996;BME280;13016;52.162;21.034;2023-12-20T03:42:17;99462.17;;;12.54;59.39
24996;BME280;13016;52.162;21.034;2023-12-20T03:48:46;99450.65;;;12.38;59.89
24996;BME280;13016;52.162;21.034;2023-12-20T05:36:11;99428.98;;;13.12;58.61
24996;BME280;13016;52.162;21.034;2023-12-20T05:42:17;99423.21;;;12.76;59.06
24996;BME280;13016;52.162;21.034;2023-12-20T05:55:22;99429.10;;;12.35;60.50
24996;BME280;13016;52.162;21.034;2023-12-20T06:08:32;99422.55;;;12.38;60.80
24996;BME280;13016;52.162;21.034;2023-12-20T07:24:18;99430.95;;;13.12;58.25
24996;BME280;13016;52.162;21.034;2023-12-20T08:38:47;99432.73;;;12.93;58.18
24996;BME280;13016;52.162;21.034;2023-12-20T08:45:25;99431.64;;;12.55;59.19
24996;BME280;13016;52.162;21.034;2023-12-20T08:52:10;99434.23;;;12.33;60.12
24996;BME280;13016;52.162;21.034;2023-12-20T08:58:36;99428.20;;;12.36;60.80
24996;BME280;13016;52.162;21.034;2023-12-20T09:05:22;99422.66;;;12.40;60.77
24996;BME280;13016;52.162;21.034;2023-12-20T09:30:42;99400.17;;;12.97;59.31
24996;BME280;13016;52.162;21.034;2023-12-20T09:37:37;99384.29;;;12.61;60.00
24996;BME280;13016;52.162;21.034;2023-12-20T09:44:16;99379.66;;;12.47;60.47
24996;BME280;13016;52.162;21.034;2023-12-20T10:16:03;99366.54;;;12.95;60.05
24996;BME280;13016;52.162;21.034;2023-12-20T10:22:38;99366.52;;;12.83;59.51
24996;BME280;13016;52.162;21.034;2023-12-20T10:41:50;99349.30;;;12.46;60.41
24996;BME280;13016;52.162;21.034;2023-12-20T10:48:39;99344.96;;;12.53;60.70
24996;BME280;13016;52.162;21.034;2023-12-20T11:01:16;99339.39;;;12.50;60.74
24996;BME280;13016;52.162;21.034;2023-12-20T11:08:00;99332.16;;;12.56;60.31
24996;BME280;13016;52.162;21.034;2023-12-20T11:14:30;99321.14;;;12.86;59.48
24996;BME280;13016;52.162;21.034;2023-12-20T11:21:07;99312.47;;;13.06;59.15
24996;BME280;13016;52.162;21.034;2023-12-20T11:28:08;99299.83;;;13.13;58.94
24996;BME280;13016;52.162;21.034;2023-12-20T11:34:50;99295.17;;;13.15;58.66
24996;BME280;13016;52.162;21.034;2023-12-20T12:05:33;99265.13;;;12.46;60.94
24996;BME280;13016;52.162;21.034;2023-12-20T12:24:34;99256.11;;;12.79;59.72
24996;BME280;13016;52.162;21.034;2023-12-20T12:31:27;99248.86;;;12.58;59.35
24996;BME280;13016;52.162;21.034;2023-12-20T12:38:19;99237.17;;;12.14;60.11
24996;BME280;13016;52.162;21.034;2023-12-20T12:44:36;99234.99;;;12.13;60.42
24996;BME280;13016;52.162;21.034;2023-12-20T12:51:17;99228.85;;;12.04;60.73
24996;BME280;13016;52.162;21.034;2023-12-20T13:34:59;99228.82;;;11.96;58.95
24996;BME280;13016;52.162;21.034;2023-12-20T13:41:22;99221.55;;;11.96;59.31
24996;BME280;13016;52.162;21.034;2023-12-20T14:01:20;99216.02;;;11.84;59.33
24996;BME280;13016;52.162;21.034;2023-12-20T14:08:06;99216.38;;;11.84;59.43
24996;BME280;13016;52.162;21.034;2023-12-20T14:14:21;99210.48;;;11.64;59.30
24996;BME280;13016;52.162;21.034;2023-12-20T14:20:41;99211.91;;;11.60;59.16
24996;BME280;13016;52.162;21.034;2023-12-20T14:27:11;99220.84;;;11.50;58.90
24996;BME280;13016;52.162;21.034;2023-12-20T14:33:41;99229.67;;;11.37;59.33
24996;BME280;13016;52.162;21.034;2023-12-20T14:39:44;99231.83;;;11.41;58.96
24996;BME280;13016;52.162;21.034;2023-12-20T14:45:55;99226.27;;;11.36;58.84
24996;BME280;13016;52.162;21.034;2023-12-20T14:52:00;99225.42;;;11.41;58.47
24996;BME280;13016;52.162;21.034;2023-12-20T14:58:04;99223.13;;;11.37;57.92
24996;BME280;13016;52.162;21.034;2023-12-20T15:04:08;99227.67;;;11.35;57.61
24996;BME280;13016;52.162;21.034;2023-12-20T15:16:30;99224.58;;;11.43;56.93
24996;BME280;13016;52.162;21.034;2023-12-20T15:22:31;99218.33;;;11.86;55.38
24996;BME280;13016;52.162;21.034;2023-12-20T15:28:33;99211.85;;;11.84;54.94
24996;BME280;13016;52.162;21.034;2023-12-20T15:34:34;99208.84;;;11.92;54.55
24996;BME280;13016;52.162;21.034;2023-12-20T15:40:36;99202.95;;;11.86;54.15
24996;BME280;13016;52.162;21.034;2023-12-20T15:46:38;99199.15;;;11.96;54.23
24996;BME280;13016;52.162;21.034;2023-12-20T15:52:40;99194.39;;;11.89;54.10
24996;BME280;13016;52.162;21.034;2023-12-20T15:58:43;99190.51;;;11.79;54.17
24996;BME280;13016;52.162;21.034;2023-12-20T16:05:12;99178.70;;;11.68;53.96
24996;BME280;13016;52.162;21.034;2023-12-20T16:11:17;99169.77;;;11.33;54.77
24996;BME280;13016;52.162;21.034;2023-12-20T16:46:24;99173.14;;;11.96;52.85
24996;BME280;13016;52.162;21.034;2023-12-20T16:52:24;99171.68;;;11.72;53.18
24996;BME280;13016;52.162;21.034;2023-12-20T16:58:24;99165.89;;;11.40;53.80
24996;BME280;13016;52.162;21.034;2023-12-20T17:04:24;99162.07;;;11.28;54.24
24996;BME280;13016;52.162;21.034;2023-12-20T17:10:25;99162.39;;;11.29;54.22
24996;BME280;13016;52.162;21.034;2023-12-20T17:16:26;99161.65;;;11.21;54.24
24996;BME280;13016;52.162;21.034;2023-12-20T17:22:26;99148.53;;;11.21;54.44
24996;BME280;13016;52.162;21.034;2023-12-20T17:28:26;99145.84;;;11.28;54.29
24996;BME280;13016;52.162;21.034;2023-12-20T17:34:27;99142.10;;;11.25;54.18
24996;BME280;13016;52.162;21.034;2023-12-20T17:46:46;99119.68;;;11.14;54.25
24996;BME280;13016;52.162;21.034;2023-12-20T17:52:47;99119.77;;;11.26;54.58
24996;BME280;13016;52.162;21.034;2023-12-20T17:58:48;99114.17;;;11.57;53.39
24996;BME280;13016;52.162;21.034;2023-12-20T18:05:02;99103.77;;;11.81;52.40
24996;BME280;13016;52.162;21.034;2023-12-20T18:11:30;99093.45;;;11.84;52.35
24996;BME280;13016;52.162;21.034;2023-12-20T18:17:57;99090.30;;;11.80;52.12
24996;BME280;13016;52.162;21.034;2023-12-20T18:24:01;99086.77;;;12.00;51.96
24996;BME280;13016;52.162;21.034;2023-12-20T18:30:50;99080.96;;;11.91;52.10
24996;BME280;13016;52.162;21.034;2023-12-20T18:37:00;99073.18;;;11.99;52.69
24996;BME280;13016;52.162;21.034;2023-12-20T18:43:04;99067.47;;;11.88;52.70
24996;BME280;13016;52.162;21.034;2023-12-20T18:49:30;99059.97;;;12.01;52.45
24996;BME280;13016;52.162;21.034;2023-12-20T18:55:46;99055.20;;;11.89;52.59
24996;BME280;13016;52.162;21.034;2023-12-20T19:01:52;99056.98;;;11.89;52.68
24996;BME280;13016;52.162;21.034;2023-12-20T19:08:01;99060.63;;;11.79;52.53
24996;BME280;13016;52.162;21.034;2023-12-20T19:14:08;99068.33;;;11.37;53.88
24996;BME280;13016;52.162;21.034;2023-12-20T19:20:36;99090.48;;;11.07;55.94
24996;BME280;13016;52.162;21.034;2023-12-20T19:27:04;99098.76;;;11.19;56.12
24996;BME280;13016;52.162;21.034;2023-12-20T19:59:41;99117.62;;;10.03;56.42
24996;BME280;13016;52.162;21.034;2023-12-20T20:05:45;99113.13;;;9.68;57.09
24996;BME280;13016;52.162;21.034;2023-12-20T20:11:46;99121.26;;;9.65;57.59
24996;BME280;13016;52.162;21.034;2023-12-20T20:17:49;99128.58;;;9.41;58.00
24996;BME280;13016;52.162;21.034;2023-12-20T20:23:59;99129.66;;;9.36;58.28
24996;BME280;13016;52.162;21.034;2023-12-20T20:30:00;99123.36;;;9.36;58.44
24996;BME280;13016;52.162;21.034;2023-12-20T20:36:06;99125.93;;;9.35;58.40
24996;BME280;13016;52.162;21.034;2023-12-20T20:42:07;99128.15;;;9.28;58.50
24996;BME280;13016;52.162;21.034;2023-12-20T20:48:08;99129.80;;;9.37;58.29
24996;BME280;13016;52.162;21.034;2023-12-20T20:54:30;99124.49;;;9.23;57.98
24996;BME280;13016;52.162;21.034;2023-12-20T21:00:31;99128.37;;;9.09;57.97
24996;BME280;13016;52.162;21.034;2023-12-20T21:06:34;99131.39;;;9.04;58.10
24996;BME280;13016;52.162;21.034;2023-12-20T21:12:37;99134.20;;;9.02;58.41
24996;BME280;13016;52.162;21.034;2023-12-20T21:18:44;99133.52;;;9.15;58.35
24996;BME280;13016;52.162;21.034;2023-12-20T21:24:46;99126.54;;;9.26;58.30
24996;BME280;13016;52.162;21.034;2023-12-20T21:31:27;99114.61;;;9.14;58.12
24996;BME280;13016;52.162;21.034;2023-12-20T21:37:29;99124.98;;;9.26;57.99
24996;BME280;13016;52.162;21.034;2023-12-20T21:43:35;99131.73;;;9.32;57.66
24996;BME280;13016;52.162;21.034;2023-12-20T21:50:12;99140.14;;;9.38;57.66
24996;BME280;13016;52.162;21.034;2023-12-20T21:56:16;99145.75;;;9.36;57.62
24996;BME280;13016;52.162;21.034;2023-12-20T22:02:18;99151.04;;;9.47;57.56
24996;BME280;13016;52.162;21.034;2023-12-20T22:08:20;99157.48;;;9.50;57.29
24996;BME280;13016;52.162;21.034;2023-12-20T22:14:46;99158.95;;;9.60;56.84
24996;BME280;13016;52.162;21.034;2023-12-20T22:21:32;99165.84;;;9.62;56.46
24996;BME280;13016;52.162;21.034;2023-12-20T22:32:43;99145.88;;;9.84;54.45
24996;BME280;13016;52.162;21.034;2023-12-20T22:38:44;99158.83;;;9.87;53.88
24996;BME280;13016;52.162;21.034;2023-12-20T22:44:45;99163.14;;;9.95;53.94
24996;BME280;13016;52.162;21.034;2023-12-20T22:51:15;99164.34;;;9.89;54.15
24996;BME280;13016;52.162;21.034;2023-12-20T22:57:16;99160.08;;;9.94;54.45
24996;BME280;13016;52.162;21.034;2023-12-20T23:03:24;99158.24;;;9.83;54.39
24996;BME280;13016;52.162;21.034;2023-12-20T23:09:25;99154.93;;;9.85;54.54
24996;BME280;13016;52.162;21.034;2023-12-20T23:15:30;99149.23;;;9.82;54.14
24996;BME280;13016;52.162;21.034;2023-12-20T23:21:31;99150.30;;;9.86;53.80
24996;BME280;13016;52.162;21.034;2023-12-20T23:27:32;99141.33;;;9.90;53.29
24996;BME280;13016;52.162;21.034;2023-12-20T23:33:44;99136.27;;;9.98;53.23
24996;BME280;13016;52.162;21.034;2023-12-20T23:39:44;99128.42;;;9.95;53.38
24996;BME280;13016;52.162;21.034;2023-12-20T23:45:45;99122.88;;;10.01;53.57
24996;BME280;13016;52.162;21.034;2023-12-20T23:51:49;99113.58;;;10.10;53.62
24996;BME280;13016;52.162;21.034;2023-12-20T23:58:04;99109.55;;;10.06;53.24
